sensor_id;sensor_type;location;lat;lon;timestamp;temperature;humidity
45283;DHT22;31023;44.994;1.796;2022-07-12T00:01:46;22.10;72.00
45283;DHT22;31023;44.994;1.796;2022-07-12T00:04:11;22.10;72.30
45283;DHT22;31023;44.994;1.796;2022-07-12T00:06:37;22.00;72.30
45283;DHT22;31023;44.994;1.796;2022-07-12T00:09:03;22.10;71.80
45283;DHT22;31023;44.994;1.796;2022-07-12T00:11:28;22.00;72.30
45283;DHT22;31023;44.994;1.796;2022-07-12T00:13:54;21.90;72.50
45283;DHT22;31023;44.994;1.796;2022-07-12T00:16:19;21.80;72.80
45283;DHT22;31023;44.994;1.796;2022-07-12T00:18:45;21.80;72.60
45283;DHT22;31023;44.994;1.796;2022-07-12T00:21:10;21.90;72.40
45283;DHT22;31023;44.994;1.796;2022-07-12T00:23:36;21.80;72.50
45283;DHT22;31023;44.994;1.796;2022-07-12T00:26:02;21.80;72.70
45283;DHT22;31023;44.994;1.796;2022-07-12T00:28:30;21.90;72.20
45283;DHT22;31023;44.994;1.796;2022-07-12T00:30:55;21.80;72.30
45283;DHT22;31023;44.994;1.796;2022-07-12T00:33:21;21.80;73.20
45283;DHT22;31023;44.994;1.796;2022-07-12T00:35:47;21.70;72.90
45283;DHT22;31023;44.994;1.796;2022-07-12T00:38:12;21.60;73.10
45283;DHT22;31023;44.994;1.796;2022-07-12T00:40:38;21.60;72.90
45283;DHT22;31023;44.994;1.796;2022-07-12T00:43:03;21.60;73.30
45283;DHT22;31023;44.994;1.796;2022-07-12T00:45:29;21.50;74.10
45283;DHT22;31023;44.994;1.796;2022-07-12T00:47:54;21.50;73.40
45283;DHT22;31023;44.994;1.796;2022-07-12T00:50:21;21.50;73.60
45283;DHT22;31023;44.994;1.796;2022-07-12T00:52:47;21.40;74.00
45283;DHT22;31023;44.994;1.796;2022-07-12T00:55:13;21.40;74.10
45283;DHT22;31023;44.994;1.796;2022-07-12T00:57:39;21.30;74.00
45283;DHT22;31023;44.994;1.796;2022-07-12T01:00:08;21.20;74.70
45283;DHT22;31023;44.994;1.796;2022-07-12T01:02:35;21.40;73.40
45283;DHT22;31023;44.994;1.796;2022-07-12T01:05:01;21.40;73.60
45283;DHT22;31023;44.994;1.796;2022-07-12T01:07:28;21.30;74.20
45283;DHT22;31023;44.994;1.796;2022-07-12T01:09:54;21.30;73.70
45283;DHT22;31023;44.994;1.796;2022-07-12T01:12:22;21.30;74.00
45283;DHT22;31023;44.994;1.796;2022-07-12T01:14:49;21.20;73.90
45283;DHT22;31023;44.994;1.796;2022-07-12T01:17:15;21.20;74.00
45283;DHT22;31023;44.994;1.796;2022-07-12T01:19:41;21.20;74.10
45283;DHT22;31023;44.994;1.796;2022-07-12T01:22:10;21.10;74.20
45283;DHT22;31023;44.994;1.796;2022-07-12T01:24:36;21.10;74.10
45283;DHT22;31023;44.994;1.796;2022-07-12T01:27:05;21.10;74.30
45283;DHT22;31023;44.994;1.796;2022-07-12T01:29:31;21.00;74.40
45283;DHT22;31023;44.994;1.796;2022-07-12T01:31:59;21.00;74.80
45283;DHT22;31023;44.994;1.796;2022-07-12T01:34:45;21.10;74.20
45283;DHT22;31023;44.994;1.796;2022-07-12T01:37:12;21.00;74.30
45283;DHT22;31023;44.994;1.796;2022-07-12T01:39:39;20.90;74.50
45283;DHT22;31023;44.994;1.796;2022-07-12T01:42:05;20.90;74.20
45283;DHT22;31023;44.994;1.796;2022-07-12T01:44:31;20.90;74.30
45283;DHT22;31023;44.994;1.796;2022-07-12T01:46:57;20.90;74.70
45283;DHT22;31023;44.994;1.796;2022-07-12T01:49:23;20.70;75.00
45283;DHT22;31023;44.994;1.796;2022-07-12T01:51:49;20.90;74.60
45283;DHT22;31023;44.994;1.796;2022-07-12T01:54:14;20.80;74.40
45283;DHT22;31023;44.994;1.796;2022-07-12T01:56:40;20.80;74.50
45283;DHT22;31023;44.994;1.796;2022-07-12T01:59:06;20.80;75.00
45283;DHT22;31023;44.994;1.796;2022-07-12T02:01:32;20.70;75.00
45283;DHT22;31023;44.994;1.796;2022-07-12T02:04:01;20.70;74.80
45283;DHT22;31023;44.994;1.796;2022-07-12T02:06:27;20.70;75.00
45283;DHT22;31023;44.994;1.796;2022-07-12T02:08:53;20.70;74.80
45283;DHT22;31023;44.994;1.796;2022-07-12T02:11:19;20.70;74.60
45283;DHT22;31023;44.994;1.796;2022-07-12T02:13:44;20.70;74.90
45283;DHT22;31023;44.994;1.796;2022-07-12T02:16:10;20.70;74.70
45283;DHT22;31023;44.994;1.796;2022-07-12T02:18:35;20.60;74.70
45283;DHT22;31023;44.994;1.796;2022-07-12T02:21:01;20.60;75.00
45283;DHT22;31023;44.994;1.796;2022-07-12T02:23:27;20.60;75.20
45283;DHT22;31023;44.994;1.796;2022-07-12T02:25:52;20.50;76.10
45283;DHT22;31023;44.994;1.796;2022-07-12T02:28:18;20.40;76.10
45283;DHT22;31023;44.994;1.796;2022-07-12T02:30:43;20.40;76.40
45283;DHT22;31023;44.994;1.796;2022-07-12T02:33:09;20.40;76.80
45283;DHT22;31023;44.994;1.796;2022-07-12T02:35:35;20.40;77.40
45283;DHT22;31023;44.994;1.796;2022-07-12T02:38:00;20.30;77.30
45283;DHT22;31023;44.994;1.796;2022-07-12T02:40:26;20.30;77.60
45283;DHT22;31023;44.994;1.796;2022-07-12T02:43:10;20.30;77.40
45283;DHT22;31023;44.994;1.796;2022-07-12T02:45:35;20.20;77.90
45283;DHT22;31023;44.994;1.796;2022-07-12T02:48:01;20.20;78.60
45283;DHT22;31023;44.994;1.796;2022-07-12T02:50:27;20.10;79.20
45283;DHT22;31023;44.994;1.796;2022-07-12T02:52:53;20.10;79.30
45283;DHT22;31023;44.994;1.796;2022-07-12T02:55:18;20.00;79.90
45283;DHT22;31023;44.994;1.796;2022-07-12T02:57:44;19.90;80.40
45283;DHT22;31023;44.994;1.796;2022-07-12T03:00:09;19.90;80.90
45283;DHT22;31023;44.994;1.796;2022-07-12T03:02:35;19.80;81.90
45283;DHT22;31023;44.994;1.796;2022-07-12T03:05:01;19.70;82.30
45283;DHT22;31023;44.994;1.796;2022-07-12T03:07:27;19.80;82.40
45283;DHT22;31023;44.994;1.796;2022-07-12T03:09:52;19.80;83.00
45283;DHT22;31023;44.994;1.796;2022-07-12T03:12:18;19.70;83.40
45283;DHT22;31023;44.994;1.796;2022-07-12T03:14:43;19.70;83.50
45283;DHT22;31023;44.994;1.796;2022-07-12T03:17:09;19.70;84.40
45283;DHT22;31023;44.994;1.796;2022-07-12T03:19:35;19.60;84.60
45283;DHT22;31023;44.994;1.796;2022-07-12T03:22:00;19.60;85.10
45283;DHT22;31023;44.994;1.796;2022-07-12T03:24:26;19.60;85.70
45283;DHT22;31023;44.994;1.796;2022-07-12T03:26:51;19.60;85.80
45283;DHT22;31023;44.994;1.796;2022-07-12T03:29:17;19.50;86.50
45283;DHT22;31023;44.994;1.796;2022-07-12T03:31:42;19.60;86.00
45283;DHT22;31023;44.994;1.796;2022-07-12T03:34:08;19.60;86.10
45283;DHT22;31023;44.994;1.796;2022-07-12T03:36:33;19.60;86.60
45283;DHT22;31023;44.994;1.796;2022-07-12T03:38:59;19.60;86.60
45283;DHT22;31023;44.994;1.796;2022-07-12T03:41:24;19.50;87.10
45283;DHT22;31023;44.994;1.796;2022-07-12T03:43:50;19.60;86.50
45283;DHT22;31023;44.994;1.796;2022-07-12T03:46:16;19.50;87.50
45283;DHT22;31023;44.994;1.796;2022-07-12T03:48:41;19.40;87.50
45283;DHT22;31023;44.994;1.796;2022-07-12T03:51:07;19.40;87.30
45283;DHT22;31023;44.994;1.796;2022-07-12T03:53:32;19.50;87.60
45283;DHT22;31023;44.994;1.796;2022-07-12T03:55:58;19.50;87.60
45283;DHT22;31023;44.994;1.796;2022-07-12T03:58:23;19.50;87.80
45283;DHT22;31023;44.994;1.796;2022-07-12T04:00:49;19.50;87.10
45283;DHT22;31023;44.994;1.796;2022-07-12T04:03:14;19.40;88.30
45283;DHT22;31023;44.994;1.796;2022-07-12T04:05:40;19.50;88.00
45283;DHT22;31023;44.994;1.796;2022-07-12T04:08:05;19.30;88.70
45283;DHT22;31023;44.994;1.796;2022-07-12T04:10:31;19.30;89.30
45283;DHT22;31023;44.994;1.796;2022-07-12T04:12:57;19.30;89.50
45283;DHT22;31023;44.994;1.796;2022-07-12T04:15:22;19.40;88.90
45283;DHT22;31023;44.994;1.796;2022-07-12T04:17:48;19.40;88.80
45283;DHT22;31023;44.994;1.796;2022-07-12T04:20:14;19.30;88.70
45283;DHT22;31023;44.994;1.796;2022-07-12T04:22:39;19.20;90.00
45283;DHT22;31023;44.994;1.796;2022-07-12T04:25:05;19.30;89.60
45283;DHT22;31023;44.994;1.796;2022-07-12T04:27:31;19.20;90.00
45283;DHT22;31023;44.994;1.796;2022-07-12T04:29:57;19.30;89.30
45283;DHT22;31023;44.994;1.796;2022-07-12T04:32:22;19.20;90.20
45283;DHT22;31023;44.994;1.796;2022-07-12T04:34:48;19.50;88.90
45283;DHT22;31023;44.994;1.796;2022-07-12T04:37:13;19.70;87.10
45283;DHT22;31023;44.994;1.796;2022-07-12T04:39:39;19.80;86.90
45283;DHT22;31023;44.994;1.796;2022-07-12T04:42:04;20.10;85.10
45283;DHT22;31023;44.994;1.796;2022-07-12T04:44:30;20.40;82.30
45283;DHT22;31023;44.994;1.796;2022-07-12T04:46:56;20.70;81.20
45283;DHT22;31023;44.994;1.796;2022-07-12T04:49:21;20.80;80.20
45283;DHT22;31023;44.994;1.796;2022-07-12T04:51:47;21.00;79.20
45283;DHT22;31023;44.994;1.796;2022-07-12T04:54:12;21.30;78.10
45283;DHT22;31023;44.994;1.796;2022-07-12T04:56:38;21.30;76.80
45283;DHT22;31023;44.994;1.796;2022-07-12T04:59:03;21.60;76.10
45283;DHT22;31023;44.994;1.796;2022-07-12T05:01:29;21.60;76.50
45283;DHT22;31023;44.994;1.796;2022-07-12T05:03:55;21.80;75.00
45283;DHT22;31023;44.994;1.796;2022-07-12T05:06:20;21.90;74.20
45283;DHT22;31023;44.994;1.796;2022-07-12T05:08:48;22.10;73.60
45283;DHT22;31023;44.994;1.796;2022-07-12T05:11:13;22.20;72.90
45283;DHT22;31023;44.994;1.796;2022-07-12T05:13:39;22.20;72.40
45283;DHT22;31023;44.994;1.796;2022-07-12T05:16:06;22.20;72.20
45283;DHT22;31023;44.994;1.796;2022-07-12T05:18:31;22.50;72.50
45283;DHT22;31023;44.994;1.796;2022-07-12T05:20:57;22.60;71.90
45283;DHT22;31023;44.994;1.796;2022-07-12T05:23:22;22.70;71.60
45283;DHT22;31023;44.994;1.796;2022-07-12T05:25:48;23.60;69.10
45283;DHT22;31023;44.994;1.796;2022-07-12T05:28:14;23.90;67.80
45283;DHT22;31023;44.994;1.796;2022-07-12T05:30:40;24.40;66.20
45283;DHT22;31023;44.994;1.796;2022-07-12T05:33:05;24.50;66.30
45283;DHT22;31023;44.994;1.796;2022-07-12T05:35:31;24.60;65.70
45283;DHT22;31023;44.994;1.796;2022-07-12T05:37:57;24.60;65.10
45283;DHT22;31023;44.994;1.796;2022-07-12T05:40:22;25.20;64.10
45283;DHT22;31023;44.994;1.796;2022-07-12T05:42:48;25.20;63.20
45283;DHT22;31023;44.994;1.796;2022-07-12T05:45:13;25.20;62.10
45283;DHT22;31023;44.994;1.796;2022-07-12T05:47:39;25.40;63.60
45283;DHT22;31023;44.994;1.796;2022-07-12T05:50:05;25.50;62.40
45283;DHT22;31023;44.994;1.796;2022-07-12T05:52:30;26.00;61.30
45283;DHT22;31023;44.994;1.796;2022-07-12T05:55:14;26.20;60.50
45283;DHT22;31023;44.994;1.796;2022-07-12T05:57:40;26.40;61.20
45283;DHT22;31023;44.994;1.796;2022-07-12T06:00:06;26.40;59.80
45283;DHT22;31023;44.994;1.796;2022-07-12T06:02:31;26.50;59.70
45283;DHT22;31023;44.994;1.796;2022-07-12T06:04:57;26.70;58.70
45283;DHT22;31023;44.994;1.796;2022-07-12T06:07:22;26.90;58.80
45283;DHT22;31023;44.994;1.796;2022-07-12T06:09:48;26.90;58.20
45283;DHT22;31023;44.994;1.796;2022-07-12T06:12:13;27.30;58.00
45283;DHT22;31023;44.994;1.796;2022-07-12T06:14:39;27.40;57.30
45283;DHT22;31023;44.994;1.796;2022-07-12T06:17:04;27.20;57.50
45283;DHT22;31023;44.994;1.796;2022-07-12T06:19:30;27.30;59.20
45283;DHT22;31023;44.994;1.796;2022-07-12T06:21:56;27.40;57.50
45283;DHT22;31023;44.994;1.796;2022-07-12T06:24:21;27.50;57.50
45283;DHT22;31023;44.994;1.796;2022-07-12T06:26:47;28.00;56.70
45283;DHT22;31023;44.994;1.796;2022-07-12T06:29:12;28.00;56.70
45283;DHT22;31023;44.994;1.796;2022-07-12T06:31:38;27.70;55.80
45283;DHT22;31023;44.994;1.796;2022-07-12T06:34:03;28.20;55.90
45283;DHT22;31023;44.994;1.796;2022-07-12T06:36:29;28.40;56.40
45283;DHT22;31023;44.994;1.796;2022-07-12T06:38:54;28.80;54.50
45283;DHT22;31023;44.994;1.796;2022-07-12T06:41:20;29.50;54.10
45283;DHT22;31023;44.994;1.796;2022-07-12T06:43:45;29.30;54.00
45283;DHT22;31023;44.994;1.796;2022-07-12T06:46:11;29.70;52.90
45283;DHT22;31023;44.994;1.796;2022-07-12T06:48:37;29.70;53.60
45283;DHT22;31023;44.994;1.796;2022-07-12T06:51:02;30.20;52.10
45283;DHT22;31023;44.994;1.796;2022-07-12T06:53:28;30.30;52.00
45283;DHT22;31023;44.994;1.796;2022-07-12T06:55:53;30.20;52.50
45283;DHT22;31023;44.994;1.796;2022-07-12T06:58:19;30.10;52.70
45283;DHT22;31023;44.994;1.796;2022-07-12T07:00:44;30.40;52.00
45283;DHT22;31023;44.994;1.796;2022-07-12T07:03:10;30.90;51.20
45283;DHT22;31023;44.994;1.796;2022-07-12T07:05:36;30.60;52.50
45283;DHT22;31023;44.994;1.796;2022-07-12T07:08:02;31.30;50.20
45283;DHT22;31023;44.994;1.796;2022-07-12T07:10:27;31.40;50.80
45283;DHT22;31023;44.994;1.796;2022-07-12T07:12:53;32.00;51.30
45283;DHT22;31023;44.994;1.796;2022-07-12T07:15:18;31.30;51.20
45283;DHT22;31023;44.994;1.796;2022-07-12T07:17:44;31.60;50.80
45283;DHT22;31023;44.994;1.796;2022-07-12T07:20:10;31.70;50.10
45283;DHT22;31023;44.994;1.796;2022-07-12T07:22:36;32.00;50.50
45283;DHT22;31023;44.994;1.796;2022-07-12T07:25:02;32.40;49.30
45283;DHT22;31023;44.994;1.796;2022-07-12T07:27:28;32.70;50.10
45283;DHT22;31023;44.994;1.796;2022-07-12T07:29:53;33.00;49.10
45283;DHT22;31023;44.994;1.796;2022-07-12T07:32:38;32.80;50.10
45283;DHT22;31023;44.994;1.796;2022-07-12T07:35:03;33.40;48.70
45283;DHT22;31023;44.994;1.796;2022-07-12T07:37:31;34.00;48.20
45283;DHT22;31023;44.994;1.796;2022-07-12T07:39:57;34.00;48.00
45283;DHT22;31023;44.994;1.796;2022-07-12T07:42:22;33.80;48.50
45283;DHT22;31023;44.994;1.796;2022-07-12T07:44:48;33.90;47.60
45283;DHT22;31023;44.994;1.796;2022-07-12T07:47:13;34.50;47.30
45283;DHT22;31023;44.994;1.796;2022-07-12T07:49:39;34.60;47.70
45283;DHT22;31023;44.994;1.796;2022-07-12T07:52:04;34.70;47.70
45283;DHT22;31023;44.994;1.796;2022-07-12T07:54:30;34.90;47.30
45283;DHT22;31023;44.994;1.796;2022-07-12T07:56:55;34.70;46.80
45283;DHT22;31023;44.994;1.796;2022-07-12T07:59:21;35.00;47.50
45283;DHT22;31023;44.994;1.796;2022-07-12T08:01:46;34.10;47.60
45283;DHT22;31023;44.994;1.796;2022-07-12T08:04:17;35.00;47.40
45283;DHT22;31023;44.994;1.796;2022-07-12T08:06:43;35.50;46.10
45283;DHT22;31023;44.994;1.796;2022-07-12T08:09:09;35.80;48.00
45283;DHT22;31023;44.994;1.796;2022-07-12T08:11:35;35.90;46.00
45283;DHT22;31023;44.994;1.796;2022-07-12T08:14:01;35.40;46.20
45283;DHT22;31023;44.994;1.796;2022-07-12T08:16:26;36.10;46.10
45283;DHT22;31023;44.994;1.796;2022-07-12T08:18:52;35.90;46.20
45283;DHT22;31023;44.994;1.796;2022-07-12T08:21:18;35.80;45.90
45283;DHT22;31023;44.994;1.796;2022-07-12T08:23:43;36.30;46.10
45283;DHT22;31023;44.994;1.796;2022-07-12T08:26:09;36.40;45.90
45283;DHT22;31023;44.994;1.796;2022-07-12T08:28:35;37.30;45.10
45283;DHT22;31023;44.994;1.796;2022-07-12T08:31:00;37.50;44.70
45283;DHT22;31023;44.994;1.796;2022-07-12T08:33:26;37.20;45.00
45283;DHT22;31023;44.994;1.796;2022-07-12T08:35:52;37.40;44.20
45283;DHT22;31023;44.994;1.796;2022-07-12T08:38:17;37.50;45.00
45283;DHT22;31023;44.994;1.796;2022-07-12T08:40:43;38.10;44.20
45283;DHT22;31023;44.994;1.796;2022-07-12T08:43:09;38.30;43.60
45283;DHT22;31023;44.994;1.796;2022-07-12T08:45:34;39.30;43.20
45283;DHT22;31023;44.994;1.796;2022-07-12T08:48:00;38.00;42.60
45283;DHT22;31023;44.994;1.796;2022-07-12T08:50:25;38.70;43.50
45283;DHT22;31023;44.994;1.796;2022-07-12T08:52:55;38.20;43.10
45283;DHT22;31023;44.994;1.796;2022-07-12T08:57:47;40.70;44.00
45283;DHT22;31023;44.994;1.796;2022-07-12T09:00:12;40.90;41.40
45283;DHT22;31023;44.994;1.796;2022-07-12T09:02:57;39.90;41.90
45283;DHT22;31023;44.994;1.796;2022-07-12T09:05:26;39.90;41.80
45283;DHT22;31023;44.994;1.796;2022-07-12T09:10:27;41.00;41.40
45283;DHT22;31023;44.994;1.796;2022-07-12T09:12:53;40.60;42.70
45283;DHT22;31023;44.994;1.796;2022-07-12T09:15:23;39.90;42.40
45283;DHT22;31023;44.994;1.796;2022-07-12T09:17:59;40.00;42.30
45283;DHT22;31023;44.994;1.796;2022-07-12T09:20:33;39.80;41.60
45283;DHT22;31023;44.994;1.796;2022-07-12T09:25:50;39.40;42.10
45283;DHT22;31023;44.994;1.796;2022-07-12T09:28:16;40.90;41.20
45283;DHT22;31023;44.994;1.796;2022-07-12T09:30:48;41.40;41.10
45283;DHT22;31023;44.994;1.796;2022-07-12T09:33:17;40.80;41.30
45283;DHT22;31023;44.994;1.796;2022-07-12T09:36:01;41.00;41.30
45283;DHT22;31023;44.994;1.796;2022-07-12T09:41:07;41.90;40.80
45283;DHT22;31023;44.994;1.796;2022-07-12T09:43:33;41.70;40.10
45283;DHT22;31023;44.994;1.796;2022-07-12T09:45:59;41.80;40.00
45283;DHT22;31023;44.994;1.796;2022-07-12T09:48:26;40.40;39.40
45283;DHT22;31023;44.994;1.796;2022-07-12T09:50:52;42.30;39.20
45283;DHT22;31023;44.994;1.796;2022-07-12T09:53:28;43.30;39.30
45283;DHT22;31023;44.994;1.796;2022-07-12T09:55:54;43.00;39.40
45283;DHT22;31023;44.994;1.796;2022-07-12T09:58:27;41.90;40.00
45283;DHT22;31023;44.994;1.796;2022-07-12T10:00:53;41.70;40.20
45283;DHT22;31023;44.994;1.796;2022-07-12T10:03:22;42.10;40.80
45283;DHT22;31023;44.994;1.796;2022-07-12T10:05:52;42.60;39.10
45283;DHT22;31023;44.994;1.796;2022-07-12T10:08:20;41.70;38.70
45283;DHT22;31023;44.994;1.796;2022-07-12T10:10:46;42.20;39.40
45283;DHT22;31023;44.994;1.796;2022-07-12T10:13:12;43.30;37.80
45283;DHT22;31023;44.994;1.796;2022-07-12T10:15:38;42.90;39.30
45283;DHT22;31023;44.994;1.796;2022-07-12T10:18:04;43.30;38.30
45283;DHT22;31023;44.994;1.796;2022-07-12T10:20:30;42.50;39.80
45283;DHT22;31023;44.994;1.796;2022-07-12T10:25:41;42.90;38.70
45283;DHT22;31023;44.994;1.796;2022-07-12T10:28:06;43.00;39.00
45283;DHT22;31023;44.994;1.796;2022-07-12T10:30:40;42.60;38.20
45283;DHT22;31023;44.994;1.796;2022-07-12T10:33:06;40.80;39.40
45283;DHT22;31023;44.994;1.796;2022-07-12T10:35:39;41.00;38.60
45283;DHT22;31023;44.994;1.796;2022-07-12T10:40:36;40.20;39.20
45283;DHT22;31023;44.994;1.796;2022-07-12T10:45:31;36.50;39.60
45283;DHT22;31023;44.994;1.796;2022-07-12T10:47:58;35.80;40.60
45283;DHT22;31023;44.994;1.796;2022-07-12T10:58:30;35.30;43.90
45283;DHT22;31023;44.994;1.796;2022-07-12T11:00:55;34.80;43.80
45283;DHT22;31023;44.994;1.796;2022-07-12T11:03:21;34.50;43.10
45283;DHT22;31023;44.994;1.796;2022-07-12T11:05:47;34.70;45.70
45283;DHT22;31023;44.994;1.796;2022-07-12T11:08:16;34.70;43.60
45283;DHT22;31023;44.994;1.796;2022-07-12T11:10:54;34.40;42.70
45283;DHT22;31023;44.994;1.796;2022-07-12T11:13:20;34.30;44.80
45283;DHT22;31023;44.994;1.796;2022-07-12T11:15:57;34.10;42.80
45283;DHT22;31023;44.994;1.796;2022-07-12T11:18:32;33.60;44.30
45283;DHT22;31023;44.994;1.796;2022-07-12T11:20:59;33.40;43.20
45283;DHT22;31023;44.994;1.796;2022-07-12T11:23:25;33.00;43.30
45283;DHT22;31023;44.994;1.796;2022-07-12T11:25:56;33.40;45.60
45283;DHT22;31023;44.994;1.796;2022-07-12T11:28:23;33.60;44.80
45283;DHT22;31023;44.994;1.796;2022-07-12T11:30:49;33.60;44.80
45283;DHT22;31023;44.994;1.796;2022-07-12T11:33:15;33.30;43.20
45283;DHT22;31023;44.994;1.796;2022-07-12T11:35:40;33.00;43.20
45283;DHT22;31023;44.994;1.796;2022-07-12T11:38:08;33.20;47.60
45283;DHT22;31023;44.994;1.796;2022-07-12T11:40:33;33.10;46.30
45283;DHT22;31023;44.994;1.796;2022-07-12T11:43:00;33.40;46.70
45283;DHT22;31023;44.994;1.796;2022-07-12T11:45:30;33.30;45.70
45283;DHT22;31023;44.994;1.796;2022-07-12T11:47:55;33.20;45.30
45283;DHT22;31023;44.994;1.796;2022-07-12T11:50:22;33.00;42.70
45283;DHT22;31023;44.994;1.796;2022-07-12T11:52:48;33.00;44.20
45283;DHT22;31023;44.994;1.796;2022-07-12T11:55:14;33.00;43.50
45283;DHT22;31023;44.994;1.796;2022-07-12T11:57:40;33.10;43.90
45283;DHT22;31023;44.994;1.796;2022-07-12T12:00:18;33.00;42.90
45283;DHT22;31023;44.994;1.796;2022-07-12T12:02:44;33.00;45.20
45283;DHT22;31023;44.994;1.796;2022-07-12T12:05:10;32.80;41.10
45283;DHT22;31023;44.994;1.796;2022-07-12T12:07:36;32.70;43.10
45283;DHT22;31023;44.994;1.796;2022-07-12T12:15:10;32.30;42.50
45283;DHT22;31023;44.994;1.796;2022-07-12T12:17:37;32.30;38.70
45283;DHT22;31023;44.994;1.796;2022-07-12T12:20:10;32.30;42.40
45283;DHT22;31023;44.994;1.796;2022-07-12T12:22:37;32.30;38.50
45283;DHT22;31023;44.994;1.796;2022-07-12T12:25:03;32.30;42.10
45283;DHT22;31023;44.994;1.796;2022-07-12T12:27:29;32.50;44.20
45283;DHT22;31023;44.994;1.796;2022-07-12T12:30:04;32.50;44.50
45283;DHT22;31023;44.994;1.796;2022-07-12T12:32:30;32.30;42.80
45283;DHT22;31023;44.994;1.796;2022-07-12T12:35:05;32.30;43.70
45283;DHT22;31023;44.994;1.796;2022-07-12T12:37:31;32.30;40.70
45283;DHT22;31023;44.994;1.796;2022-07-12T12:39:56;32.10;45.50
45283;DHT22;31023;44.994;1.796;2022-07-12T12:42:25;32.20;42.10
45283;DHT22;31023;44.994;1.796;2022-07-12T12:44:51;32.10;41.10
45283;DHT22;31023;44.994;1.796;2022-07-12T12:47:16;32.10;43.50
45283;DHT22;31023;44.994;1.796;2022-07-12T12:49:58;32.10;44.20
45283;DHT22;31023;44.994;1.796;2022-07-12T12:52:27;32.10;43.50
45283;DHT22;31023;44.994;1.796;2022-07-12T12:54:53;32.00;39.60
45283;DHT22;31023;44.994;1.796;2022-07-12T12:57:19;31.80;40.70
45283;DHT22;31023;44.994;1.796;2022-07-12T12:59:45;31.80;40.50
45283;DHT22;31023;44.994;1.796;2022-07-12T13:02:10;31.80;40.70
45283;DHT22;31023;44.994;1.796;2022-07-12T13:04:37;31.70;39.30
45283;DHT22;31023;44.994;1.796;2022-07-12T13:07:03;31.80;40.30
45283;DHT22;31023;44.994;1.796;2022-07-12T13:09:28;32.00;41.70
45283;DHT22;31023;44.994;1.796;2022-07-12T13:11:55;31.80;39.70
45283;DHT22;31023;44.994;1.796;2022-07-12T13:14:20;31.80;40.80
45283;DHT22;31023;44.994;1.796;2022-07-12T13:16:46;31.70;42.40
45283;DHT22;31023;44.994;1.796;2022-07-12T13:19:12;31.60;39.90
45283;DHT22;31023;44.994;1.796;2022-07-12T13:21:38;31.70;39.50
45283;DHT22;31023;44.994;1.796;2022-07-12T13:24:03;31.60;38.20
45283;DHT22;31023;44.994;1.796;2022-07-12T13:26:29;31.50;37.80
45283;DHT22;31023;44.994;1.796;2022-07-12T13:28:55;31.50;38.70
45283;DHT22;31023;44.994;1.796;2022-07-12T13:31:21;31.70;37.70
45283;DHT22;31023;44.994;1.796;2022-07-12T13:33:46;31.30;36.40
45283;DHT22;31023;44.994;1.796;2022-07-12T13:36:12;31.40;39.20
45283;DHT22;31023;44.994;1.796;2022-07-12T13:38:38;31.20;38.50
45283;DHT22;31023;44.994;1.796;2022-07-12T13:41:04;31.40;40.70
45283;DHT22;31023;44.994;1.796;2022-07-12T13:43:30;31.10;37.80
45283;DHT22;31023;44.994;1.796;2022-07-12T13:45:55;31.20;38.70
45283;DHT22;31023;44.994;1.796;2022-07-12T13:48:21;31.20;38.10
45283;DHT22;31023;44.994;1.796;2022-07-12T13:50:47;31.10;36.10
45283;DHT22;31023;44.994;1.796;2022-07-12T13:53:13;31.10;40.40
45283;DHT22;31023;44.994;1.796;2022-07-12T13:55:41;31.20;38.40
45283;DHT22;31023;44.994;1.796;2022-07-12T13:58:06;31.10;38.40
45283;DHT22;31023;44.994;1.796;2022-07-12T14:00:32;30.90;40.80
45283;DHT22;31023;44.994;1.796;2022-07-12T14:02:58;31.00;39.90
45283;DHT22;31023;44.994;1.796;2022-07-12T14:05:23;31.00;40.30
45283;DHT22;31023;44.994;1.796;2022-07-12T14:07:49;31.00;38.60
45283;DHT22;31023;44.994;1.796;2022-07-12T14:10:15;31.00;38.70
45283;DHT22;31023;44.994;1.796;2022-07-12T14:12:41;30.90;39.90
45283;DHT22;31023;44.994;1.796;2022-07-12T14:15:07;31.00;39.60
45283;DHT22;31023;44.994;1.796;2022-07-12T14:17:43;31.00;39.90
45283;DHT22;31023;44.994;1.796;2022-07-12T14:20:09;30.80;39.60
45283;DHT22;31023;44.994;1.796;2022-07-12T14:22:36;30.70;40.00
45283;DHT22;31023;44.994;1.796;2022-07-12T14:25:02;30.70;39.90
45283;DHT22;31023;44.994;1.796;2022-07-12T14:27:33;30.70;40.90
45283;DHT22;31023;44.994;1.796;2022-07-12T14:29:58;30.50;40.90
45283;DHT22;31023;44.994;1.796;2022-07-12T14:32:24;30.60;41.70
45283;DHT22;31023;44.994;1.796;2022-07-12T14:34:50;30.90;41.10
45283;DHT22;31023;44.994;1.796;2022-07-12T14:37:17;30.90;41.70
45283;DHT22;31023;44.994;1.796;2022-07-12T14:39:43;30.80;41.30
45283;DHT22;31023;44.994;1.796;2022-07-12T14:42:08;30.80;42.20
45283;DHT22;31023;44.994;1.796;2022-07-12T14:44:34;30.90;40.90
45283;DHT22;31023;44.994;1.796;2022-07-12T14:47:00;30.80;41.20
45283;DHT22;31023;44.994;1.796;2022-07-12T14:49:25;30.80;42.00
45283;DHT22;31023;44.994;1.796;2022-07-12T14:51:51;30.90;39.70
45283;DHT22;31023;44.994;1.796;2022-07-12T14:54:16;30.70;41.10
45283;DHT22;31023;44.994;1.796;2022-07-12T14:56:42;30.60;39.80
45283;DHT22;31023;44.994;1.796;2022-07-12T14:59:07;30.70;40.60
45283;DHT22;31023;44.994;1.796;2022-07-12T15:01:33;30.70;39.10
45283;DHT22;31023;44.994;1.796;2022-07-12T15:03:59;30.70;39.70
45283;DHT22;31023;44.994;1.796;2022-07-12T15:06:24;30.60;41.60
45283;DHT22;31023;44.994;1.796;2022-07-12T15:08:52;30.70;39.80
45283;DHT22;31023;44.994;1.796;2022-07-12T15:11:17;30.80;38.20
45283;DHT22;31023;44.994;1.796;2022-07-12T15:13:43;30.70;38.70
45283;DHT22;31023;44.994;1.796;2022-07-12T15:16:09;30.60;39.50
45283;DHT22;31023;44.994;1.796;2022-07-12T15:18:34;30.60;40.10
45283;DHT22;31023;44.994;1.796;2022-07-12T15:21:01;30.60;38.20
45283;DHT22;31023;44.994;1.796;2022-07-12T15:23:27;30.60;38.30
45283;DHT22;31023;44.994;1.796;2022-07-12T15:25:53;30.60;38.10
45283;DHT22;31023;44.994;1.796;2022-07-12T15:28:19;30.70;38.10
45283;DHT22;31023;44.994;1.796;2022-07-12T15:30:46;30.60;37.70
45283;DHT22;31023;44.994;1.796;2022-07-12T15:33:12;30.60;39.20
45283;DHT22;31023;44.994;1.796;2022-07-12T15:35:37;30.40;39.80
45283;DHT22;31023;44.994;1.796;2022-07-12T15:38:03;30.30;38.30
45283;DHT22;31023;44.994;1.796;2022-07-12T15:40:28;30.00;38.60
45283;DHT22;31023;44.994;1.796;2022-07-12T15:42:54;29.90;38.90
45283;DHT22;31023;44.994;1.796;2022-07-12T15:45:20;30.10;38.60
45283;DHT22;31023;44.994;1.796;2022-07-12T15:47:46;30.20;38.40
45283;DHT22;31023;44.994;1.796;2022-07-12T15:50:11;30.30;39.50
45283;DHT22;31023;44.994;1.796;2022-07-12T15:52:37;30.20;41.00
45283;DHT22;31023;44.994;1.796;2022-07-12T15:55:21;30.20;41.30
45283;DHT22;31023;44.994;1.796;2022-07-12T15:57:47;30.30;39.50